Cuyahoga County Airport
KCGF : now visible

Airfield :











YOU CAN JOIN US ON...

 
LOGIN :

Register | Disclaimer

   EN    FR    IT 

 









Legend :    VFR   Marginal VFR   IFR   Intensive IFR   Very Intensive IFR
Visi :
Ceiling :
>= 8 km
>= 3000ft
5 to 8 km
1000 to 3000 ft
1500m to 5 km
500 to 1000 ft
800 to 1500m
200 to 500 ft
< 800m
< 200 ft
Symbols :   Thunderstorms  Fog  Heavy snow  Heavy precipitations  Wind > 20 kt






- Airport Elevation : 879 ft


KCGF - Cuyahoga County

CURRENT METAR :
  • 230835Z AUTO 00000KT 10SM OVC060 16/13 A2995 RMK AO2 T01600126

EXPIRED METARs :
  • 230815Z AUTO 00000KT 10SM BKN060 BKN120 17/12 A2994 RMK AO2 T01650119
  • 230755Z AUTO 00000KT 10SM BKN060 BKN120 17/11 A2994 RMK AO2 T01700115
  • 230735Z AUTO 01003KT 10SM BKN060 18/11 A2994 RMK AO2 T01820108
  • 230707Z AUTO 35004KT 10SM CLR 19/11 A2993 RMK AO2 LTG DSNT SE AND S T01870109
  • 230655Z AUTO 34005KT 10SM SCT120 19/11 A2993 RMK AO2 LTG DSNT SE T01900110
  • 230635Z AUTO 33006KT 10SM SCT120 19/12 A2992 RMK AO2 T01930115
  • 230615Z AUTO 32007KT 10SM CLR 19/13 A2991 RMK AO2 T01940134
  • 230535Z AUTO 27009KT 10SM CLR 20/15 A2989 RMK AO2 T02010154
  • 230515Z AUTO 27010KT 10SM CLR 20/16 A2987 RMK AO2 T01980158
  • 230455Z AUTO 26007KT 10SM CLR 20/16 A2988 RMK AO2 T02010159
  • 230435Z AUTO 27006KT 10SM SCT075 SCT085 20/16 A2988 RMK AO2 T01960161
  • 230415Z AUTO 24007KT 10SM BKN075 BKN120 21/16 A2988 RMK AO2 T02060160

Expired Forecast.
KZOB FIR / North America



MET'MAP, your aeronautical weather chart ! - Copyright ORBIFLY December 2007 - Disclaimer

ORBIFLY MET'MAP TEAM :

Programming & Development : Alexandra Zaïnal
Original concept : Baudouin d'Aumeries
Technical & hardware support : Manuel Goepfert
Assistance : Marc-Olivier Méhu




SOURCES & CREDITS :

   NOAA       Earth
Advisory